Time;durP1;ratioP1;P1;durP2;ratioP2;P2;SDS_P1;SDS_P2;PMS_P1;PMS_P2;Temp;Humidity;BMP_temperature;BMP_pressure;BME280_temperature;BME280_humidity;BME280_pressure;Samples;Min_cycle;Max_cycle;Signal;HPM_P1;HPM_P2
2022/06/12 00:01:02;;;;;;;1.77;1.70;;;15.10;99.90;;;;;;476250;250;28812;-73
2022/06/12 00:03:03;;;;;;;1.90;1.80;;;15.00;99.90;;;;;;476237;249;28831;-72
2022/06/12 00:05:04;;;;;;;2.10;2.00;;;15.00;99.90;;;;;;476273;250;29001;-72
2022/06/12 00:07:06;;;;;;;2.10;1.90;;;15.00;99.90;;;;;;476295;250;28855;-71
2022/06/12 00:09:07;;;;;;;2.13;2.03;;;14.90;99.90;;;;;;476318;250;28803;-71
2022/06/12 00:11:08;;;;;;;2.20;2.10;;;14.90;99.90;;;;;;476311;250;29295;-73
2022/06/12 00:13:09;;;;;;;2.13;2.03;;;14.90;99.90;;;;;;476317;250;28876;-71
2022/06/12 00:15:11;;;;;;;1.77;1.67;;;14.90;99.90;;;;;;476313;250;28888;-72
2022/06/12 00:17:12;;;;;;;1.90;1.80;;;14.90;99.90;;;;;;476304;250;28780;-72
2022/06/12 00:19:13;;;;;;;1.97;1.90;;;14.80;99.90;;;;;;476313;250;29384;-72
2022/06/12 00:21:15;;;;;;;1.80;1.70;;;14.80;99.90;;;;;;476305;250;29362;-73
2022/06/12 00:23:16;;;;;;;2.00;1.90;;;14.80;99.90;;;;;;476268;250;29247;-72
2022/06/12 00:25:18;;;;;;;1.93;1.83;;;14.80;99.90;;;;;;476314;250;29503;-72
2022/06/12 00:27:18;;;;;;;2.10;2.00;;;14.70;99.90;;;;;;476255;250;28808;-71
2022/06/12 00:29:19;;;;;;;1.87;1.77;;;14.80;99.90;;;;;;476273;250;28800;-71
2022/06/12 00:31:21;;;;;;;2.90;2.00;;;14.80;99.90;;;;;;476305;250;28827;-73
2022/06/12 00:33:22;;;;;;;2.10;2.00;;;14.80;99.90;;;;;;476291;250;28907;-71
2022/06/12 00:35:23;;;;;;;1.63;1.53;;;14.70;99.90;;;;;;476270;250;28806;-72
2022/06/12 00:37:24;;;;;;;1.90;1.80;;;14.70;99.90;;;;;;476273;250;28772;-71
2022/06/12 00:39:26;;;;;;;2.03;1.93;;;14.60;99.90;;;;;;476293;250;28784;-72
2022/06/12 00:41:27;;;;;;;1.93;1.83;;;14.60;99.90;;;;;;476294;250;28911;-72
2022/06/12 00:43:31;;;;;;;1.83;1.73;;;14.60;99.90;;;;;;476265;250;28907;-71
2022/06/12 00:45:29;;;;;;;2.20;2.10;;;14.60;99.90;;;;;;476041;250;29305;-71
2022/06/12 00:47:31;;;;;;;1.90;1.80;;;14.60;99.90;;;;;;476275;250;30156;-72
2022/06/12 00:49:32;;;;;;;2.90;2.10;;;14.60;99.90;;;;;;476290;250;29227;-71
2022/06/12 00:51:33;;;;;;;1.80;1.73;;;14.60;99.90;;;;;;476266;250;28903;-72
2022/06/12 00:53:34;;;;;;;1.97;1.87;;;14.60;99.90;;;;;;476260;250;28776;-71
2022/06/12 00:55:37;;;;;;;2.10;1.93;;;14.50;99.90;;;;;;476254;250;28902;-72
2022/06/12 00:57:37;;;;;;;1.80;1.70;;;14.50;99.90;;;;;;476228;250;28816;-72
2022/06/12 00:59:38;;;;;;;1.97;1.87;;;14.40;99.90;;;;;;476297;250;28903;-72
2022/06/12 01:01:39;;;;;;;2.00;1.90;;;14.40;99.90;;;;;;476293;250;28820;-71
2022/06/12 01:08:20;;;;;;;1.90;1.80;;;14.40;99.90;;;;;;476277;250;28817;-72
2022/06/12 01:10:23;;;;;;;1.60;1.50;;;14.30;99.90;;;;;;476293;250;29291;-74
2022/06/12 01:12:23;;;;;;;2.17;2.07;;;14.30;99.90;;;;;;476180;250;28535;-71
2022/06/12 01:14:24;;;;;;;1.83;1.73;;;14.30;99.90;;;;;;476258;250;28896;-72
2022/06/12 01:16:25;;;;;;;1.83;1.73;;;14.30;99.90;;;;;;475819;250;29120;-71
2022/06/12 01:18:26;;;;;;;2.00;1.90;;;14.30;99.90;;;;;;475694;250;29703;-71
2022/06/12 01:20:28;;;;;;;2.00;1.90;;;14.20;99.90;;;;;;475762;250;29299;-72
2022/06/12 01:22:29;;;;;;;2.00;1.90;;;14.20;99.90;;;;;;476158;250;28497;-71
2022/06/12 01:24:30;;;;;;;2.23;2.03;;;14.20;99.90;;;;;;476264;250;28514;-72
2022/06/12 01:26:31;;;;;;;1.70;1.60;;;14.10;99.90;;;;;;476270;250;28895;-71
2022/06/12 01:28:33;;;;;;;2.00;1.90;;;14.00;99.90;;;;;;476292;250;28808;-71
2022/06/12 01:30:34;;;;;;;1.80;1.70;;;14.00;99.90;;;;;;476184;250;28842;-74
2022/06/12 01:32:35;;;;;;;1.73;1.73;;;14.00;99.90;;;;;;476288;250;28362;-71
2022/06/12 01:34:36;;;;;;;2.00;1.90;;;14.00;99.90;;;;;;476295;250;28815;-72
2022/06/12 01:36:38;;;;;;;1.80;1.70;;;14.00;99.90;;;;;;476254;250;28372;-71
2022/06/12 01:38:39;;;;;;;2.00;1.90;;;14.00;99.90;;;;;;476279;250;28398;-72
2022/06/12 01:40:40;;;;;;;2.00;1.90;;;14.00;99.90;;;;;;476278;250;29323;-73
2022/06/12 01:42:41;;;;;;;1.77;1.67;;;13.90;99.90;;;;;;476286;250;29351;-71
2022/06/12 01:44:43;;;;;;;2.30;2.20;;;14.00;99.90;;;;;;476294;250;29343;-71
2022/06/12 01:46:44;;;;;;;2.03;1.83;;;13.90;99.90;;;;;;476294;250;29343;-72
2022/06/12 01:48:45;;;;;;;2.00;1.90;;;13.90;99.90;;;;;;476318;250;28817;-71
2022/06/12 01:50:46;;;;;;;1.60;1.60;;;13.90;99.90;;;;;;476301;250;28891;-75
2022/06/12 01:52:48;;;;;;;1.70;1.60;;;14.00;99.90;;;;;;476300;250;28429;-71
2022/06/12 01:54:49;;;;;;;1.83;1.73;;;14.10;99.90;;;;;;476310;250;28468;-73
2022/06/12 01:56:50;;;;;;;1.63;1.63;;;14.20;99.90;;;;;;476285;250;28569;-71
2022/06/12 01:58:53;;;;;;;1.70;1.60;;;14.20;99.90;;;;;;476307;250;28521;-71
2022/06/12 02:00:53;;;;;;;1.90;1.80;;;14.20;99.90;;;;;;476164;250;28516;-73
2022/06/12 02:02:54;;;;;;;1.50;1.50;;;14.30;99.90;;;;;;476290;250;28776;-71
2022/06/12 02:04:55;;;;;;;2.30;1.67;;;14.30;99.90;;;;;;476239;250;28832;-72
2022/06/12 02:06:57;;;;;;;2.00;1.90;;;14.30;99.90;;;;;;476240;250;29056;-71
2022/06/12 02:08:58;;;;;;;1.70;1.70;;;14.30;99.90;;;;;;476281;250;29035;-71
2022/06/12 02:13:10;;;;;;;1.80;1.70;;;14.30;99.90;;;;;;476270;250;28831;-73
2022/06/12 02:13:12;;;;;;;1.70;1.60;;;14.20;99.90;;;;;;474647;250;28863;-71
2022/06/12 02:15:14;;;;;;;1.70;1.60;;;14.20;99.90;;;;;;476239;250;28592;-71
2022/06/12 02:17:15;;;;;;;1.70;1.70;;;14.20;99.90;;;;;;476253;250;28525;-71
2022/06/12 02:19:16;;;;;;;1.87;1.77;;;14.20;99.90;;;;;;476265;250;28449;-72
2022/06/12 02:21:17;;;;;;;1.90;1.80;;;14.20;99.90;;;;;;476286;250;28636;-72
2022/06/12 02:23:19;;;;;;;1.80;1.70;;;14.20;99.90;;;;;;476284;250;28527;-71
2022/06/12 02:25:20;;;;;;;1.90;1.80;;;14.20;99.90;;;;;;476230;250;28515;-72
2022/06/12 02:27:21;;;;;;;2.07;1.97;;;14.20;99.90;;;;;;476286;250;29194;-72
2022/06/12 02:29:22;;;;;;;1.73;1.73;;;14.20;99.90;;;;;;476304;250;29326;-71
2022/06/12 02:31:24;;;;;;;1.77;1.70;;;14.10;99.90;;;;;;476300;250;29311;-73
2022/06/12 02:33:25;;;;;;;2.00;1.90;;;14.10;99.90;;;;;;476293;250;29043;-71
2022/06/12 02:35:26;;;;;;;1.80;1.70;;;14.10;99.90;;;;;;476289;250;28592;-72
2022/06/12 02:37:27;;;;;;;1.77;1.70;;;14.00;99.90;;;;;;476289;249;28841;-71
2022/06/12 02:39:29;;;;;;;1.87;1.77;;;14.00;99.90;;;;;;476310;250;28811;-71
2022/06/12 02:41:30;;;;;;;2.00;1.90;;;14.00;99.90;;;;;;476280;250;28456;-73
2022/06/12 02:43:31;;;;;;;2.47;2.10;;;14.00;99.90;;;;;;476287;250;28580;-71
2022/06/12 02:45:33;;;;;;;1.83;1.73;;;14.00;99.90;;;;;;476279;250;28932;-71
2022/06/12 02:47:34;;;;;;;2.13;2.00;;;14.00;99.90;;;;;;476241;250;28465;-71
2022/06/12 02:49:35;;;;;;;2.20;2.10;;;13.90;99.90;;;;;;476255;250;28838;-72
2022/06/12 02:51:36;;;;;;;2.00;1.90;;;13.80;99.90;;;;;;476322;250;29399;-73
2022/06/12 02:53:37;;;;;;;2.30;2.20;;;13.70;99.90;;;;;;476282;250;29237;-71
2022/06/12 02:55:39;;;;;;;2.40;2.20;;;13.70;99.90;;;;;;476295;250;29002;-71
2022/06/12 02:57:40;;;;;;;2.53;2.33;;;13.70;99.90;;;;;;476282;250;30885;-72
2022/06/12 02:59:41;;;;;;;2.40;2.20;;;13.70;99.90;;;;;;476295;250;28484;-72
2022/06/12 03:01:42;;;;;;;2.27;2.17;;;13.80;99.90;;;;;;476301;250;28357;-72
2022/06/12 03:03:44;;;;;;;2.17;2.07;;;13.80;99.90;;;;;;476289;250;28348;-71
2022/06/12 03:05:45;;;;;;;2.00;1.90;;;13.90;99.90;;;;;;476278;250;28510;-72
2022/06/12 03:07:46;;;;;;;2.10;2.00;;;13.90;99.90;;;;;;476288;250;28274;-71
2022/06/12 03:09:47;;;;;;;1.90;1.80;;;13.90;99.90;;;;;;476297;250;28141;-72
2022/06/12 03:11:49;;;;;;;1.77;1.67;;;13.90;99.90;;;;;;476309;250;28486;-71
2022/06/12 03:13:50;;;;;;;2.20;2.10;;;13.90;99.90;;;;;;476305;250;28477;-71
2022/06/12 03:15:51;;;;;;;1.90;1.80;;;13.90;99.90;;;;;;476314;250;28800;-72
2022/06/12 03:17:52;;;;;;;1.80;1.70;;;14.00;99.90;;;;;;476295;250;30157;-71
2022/06/12 03:19:54;;;;;;;2.07;1.97;;;14.00;99.90;;;;;;476313;250;28948;-71
2022/06/12 03:21:55;;;;;;;1.73;1.70;;;13.90;99.90;;;;;;476339;250;28994;-73
2022/06/12 03:23:56;;;;;;;2.00;1.90;;;13.80;99.90;;;;;;476227;250;28523;-71
2022/06/12 03:25:57;;;;;;;1.63;1.53;;;13.80;99.90;;;;;;476307;250;28400;-72
2022/06/12 03:27:59;;;;;;;1.90;1.80;;;13.80;99.90;;;;;;476308;249;28590;-71
2022/06/12 03:30:00;;;;;;;1.97;1.87;;;13.80;99.90;;;;;;476265;250;28444;-71
2022/06/12 03:32:01;;;;;;;1.90;1.80;;;13.80;99.90;;;;;;476329;250;28430;-74
2022/06/12 03:34:02;;;;;;;1.83;1.73;;;13.80;99.90;;;;;;476293;250;28262;-71
2022/06/12 03:36:04;;;;;;;1.80;1.70;;;13.90;99.90;;;;;;476295;250;28497;-72
2022/06/12 03:38:05;;;;;;;1.67;1.60;;;13.80;99.90;;;;;;476261;249;28460;-72
2022/06/12 03:40:07;;;;;;;2.20;2.03;;;13.70;99.90;;;;;;476293;250;28412;-71
2022/06/12 03:42:07;;;;;;;1.97;1.77;;;13.50;99.90;;;;;;476271;250;28863;-72
2022/06/12 03:44:10;;;;;;;2.30;1.70;;;13.50;99.90;;;;;;476290;250;29091;-72
2022/06/12 03:46:10;;;;;;;1.90;1.80;;;13.60;99.90;;;;;;476244;250;28922;-72
2022/06/12 03:48:11;;;;;;;1.90;1.80;;;13.70;99.90;;;;;;476305;250;28960;-71
2022/06/12 03:50:12;;;;;;;1.80;1.70;;;13.80;99.90;;;;;;476280;250;28403;-72
2022/06/12 03:52:14;;;;;;;2.20;2.10;;;13.90;99.90;;;;;;476305;250;28399;-73
2022/06/12 03:54:15;;;;;;;1.87;1.77;;;14.00;99.90;;;;;;476278;250;28840;-72
2022/06/12 03:58:36;;;;;;;2.00;1.90;;;14.00;99.90;;;;;;476240;250;28373;-73
2022/06/12 04:00:37;;;;;;;1.73;1.63;;;14.10;99.90;;;;;;476301;250;28441;-71
2022/06/12 04:02:38;;;;;;;1.90;1.80;;;14.10;99.90;;;;;;476285;250;28815;-72
2022/06/12 04:04:40;;;;;;;1.80;1.70;;;14.00;99.90;;;;;;476276;250;28877;-71
2022/06/12 04:06:41;;;;;;;1.90;1.80;;;13.90;99.90;;;;;;476258;250;28401;-72
2022/06/12 04:08:42;;;;;;;2.03;1.93;;;13.70;99.90;;;;;;476303;250;28771;-74
2022/06/12 04:10:44;;;;;;;2.17;2.00;;;13.80;99.90;;;;;;476315;250;28468;-72
2022/06/12 04:12:45;;;;;;;1.97;1.87;;;13.90;99.90;;;;;;476287;250;28396;-71
2022/06/12 04:14:46;;;;;;;2.00;1.90;;;14.00;99.90;;;;;;476292;250;28927;-71
2022/06/12 04:16:47;;;;;;;1.80;1.70;;;14.10;99.90;;;;;;476271;250;29303;-71
2022/06/12 04:18:48;;;;;;;2.00;1.90;;;14.20;99.90;;;;;;476271;246;28963;-74
2022/06/12 04:20:50;;;;;;;1.97;1.87;;;14.30;99.90;;;;;;476307;250;29406;-71
2022/06/12 04:22:51;;;;;;;2.17;2.07;;;14.30;99.90;;;;;;476279;250;28812;-72
2022/06/12 04:24:52;;;;;;;1.87;1.73;;;14.30;99.90;;;;;;476293;250;28776;-72
2022/06/12 04:26:53;;;;;;;1.93;1.83;;;14.30;99.90;;;;;;476270;250;28887;-72
2022/06/12 04:28:55;;;;;;;2.00;1.90;;;14.20;99.90;;;;;;476276;250;29168;-72
2022/06/12 04:30:56;;;;;;;2.07;1.97;;;14.20;99.90;;;;;;476308;250;28882;-71
2022/06/12 04:32:57;;;;;;;2.13;2.03;;;14.30;99.90;;;;;;476307;250;28886;-72
2022/06/12 04:34:58;;;;;;;1.67;1.60;;;14.30;99.90;;;;;;476276;250;28875;-72
2022/06/12 04:37:00;;;;;;;2.03;1.93;;;14.30;99.90;;;;;;476271;249;28820;-71
2022/06/12 04:39:01;;;;;;;2.20;2.10;;;14.20;99.90;;;;;;476310;250;30022;-71
2022/06/12 04:41:02;;;;;;;2.10;2.00;;;14.30;99.90;;;;;;476319;250;29245;-71
2022/06/12 04:43:03;;;;;;;2.23;2.13;;;14.30;99.90;;;;;;476337;250;29392;-73
2022/06/12 04:45:05;;;;;;;2.00;1.90;;;14.30;99.90;;;;;;476305;250;29255;-71
2022/06/12 04:47:06;;;;;;;2.10;2.00;;;14.20;99.90;;;;;;476260;250;28840;-73
2022/06/12 04:49:07;;;;;;;1.90;1.80;;;14.30;99.90;;;;;;476259;249;28776;-71
2022/06/12 04:51:08;;;;;;;2.17;2.00;;;14.40;99.90;;;;;;476299;250;28792;-72
2022/06/12 04:53:10;;;;;;;2.23;2.13;;;14.60;99.90;;;;;;476280;250;28859;-73
2022/06/12 04:55:11;;;;;;;2.40;2.10;;;14.80;99.90;;;;;;476263;250;28869;-71
2022/06/12 04:57:12;;;;;;;3.20;1.90;;;14.90;99.90;;;;;;476253;250;28834;-72
2022/06/12 04:59:13;;;;;;;2.00;1.90;;;15.00;99.90;;;;;;476253;250;28868;-71
2022/06/12 05:01:15;;;;;;;2.07;1.97;;;15.10;99.90;;;;;;476306;250;28896;-72
2022/06/12 05:03:16;;;;;;;2.07;1.97;;;15.20;99.90;;;;;;476295;250;28890;-73
2022/06/12 05:05:17;;;;;;;2.30;2.20;;;15.20;99.90;;;;;;476301;250;29423;-72
2022/06/12 05:07:18;;;;;;;2.20;2.07;;;15.30;99.90;;;;;;476285;250;29327;-72
2022/06/12 05:09:20;;;;;;;2.10;2.00;;;15.10;99.90;;;;;;476282;250;29301;-72
2022/06/12 05:11:21;;;;;;;2.87;2.63;;;14.90;99.90;;;;;;476290;250;28792;-72
2022/06/12 05:13:22;;;;;;;2.30;2.20;;;14.90;99.90;;;;;;476285;250;28816;-74
2022/06/12 05:15:23;;;;;;;2.53;2.43;;;15.00;99.90;;;;;;476281;250;28785;-72
2022/06/12 05:17:25;;;;;;;2.20;2.10;;;15.00;99.90;;;;;;476250;250;28851;-73
2022/06/12 05:19:26;;;;;;;2.60;2.50;;;15.10;99.90;;;;;;476232;250;28772;-72
2022/06/12 05:21:28;;;;;;;2.30;2.20;;;15.20;99.90;;;;;;476285;250;28809;-72
2022/06/12 05:23:28;;;;;;;2.10;2.00;;;15.30;99.90;;;;;;476273;250;28899;-74
2022/06/12 05:25:30;;;;;;;1.90;1.80;;;15.50;99.90;;;;;;476270;250;28824;-72
2022/06/12 05:27:32;;;;;;;2.13;2.03;;;15.60;99.90;;;;;;476253;250;28904;-71
2022/06/12 05:29:32;;;;;;;2.13;2.03;;;15.70;99.90;;;;;;476259;250;30499;-72
2022/06/12 05:31:33;;;;;;;2.13;2.03;;;15.80;99.90;;;;;;476320;250;29288;-72
2022/06/12 05:33:35;;;;;;;2.10;2.00;;;16.00;99.90;;;;;;476275;250;29374;-72
2022/06/12 05:35:40;;;;;;;2.20;2.00;;;16.00;99.90;;;;;;476271;250;29347;-72
2022/06/12 05:37:38;;;;;;;2.20;2.10;;;16.00;99.90;;;;;;476119;250;28907;-72
2022/06/12 05:39:38;;;;;;;2.27;2.13;;;16.20;99.90;;;;;;476213;250;28772;-72
2022/06/12 05:41:40;;;;;;;2.57;2.17;;;16.30;99.90;;;;;;476278;250;28823;-72
2022/06/12 05:43:41;;;;;;;2.20;2.00;;;16.40;99.90;;;;;;476280;250;28931;-75
2022/06/12 05:45:42;;;;;;;2.30;2.20;;;16.70;99.90;;;;;;476287;250;28871;-72
2022/06/12 05:47:43;;;;;;;2.00;1.90;;;16.80;99.90;;;;;;476310;250;28836;-73
2022/06/12 05:49:45;;;;;;;2.20;2.10;;;17.00;99.90;;;;;;476285;250;28839;-73
2022/06/12 05:51:46;;;;;;;2.00;1.90;;;17.20;99.90;;;;;;476265;250;28827;-72
2022/06/12 05:53:47;;;;;;;2.33;2.10;;;17.30;99.90;;;;;;476305;250;29322;-73
2022/06/12 05:55:48;;;;;;;2.20;2.00;;;17.30;99.90;;;;;;476291;250;29252;-72
2022/06/12 05:57:50;;;;;;;1.87;1.77;;;17.40;99.90;;;;;;476262;250;29342;-73
2022/06/12 05:59:51;;;;;;;2.40;2.27;;;17.30;99.90;;;;;;476281;250;29266;-72
2022/06/12 06:01:52;;;;;;;2.27;2.17;;;17.30;99.90;;;;;;476251;249;28809;-72
2022/06/12 06:03:54;;;;;;;1.90;1.80;;;17.30;99.90;;;;;;476306;250;28923;-74
2022/06/12 06:05:55;;;;;;;2.07;1.90;;;17.30;99.90;;;;;;476310;250;28782;-72
2022/06/12 06:07:56;;;;;;;2.37;2.27;;;17.30;99.90;;;;;;476315;250;28831;-73
2022/06/12 06:09:57;;;;;;;2.00;1.90;;;17.30;99.90;;;;;;476293;250;28916;-72
2022/06/12 06:11:58;;;;;;;1.87;1.77;;;17.40;99.90;;;;;;476286;250;28891;-72
2022/06/12 06:14:00;;;;;;;1.80;1.70;;;17.50;99.90;;;;;;476297;250;29179;-73
2022/06/12 06:16:01;;;;;;;2.37;2.27;;;17.50;99.90;;;;;;476307;250;28792;-72
2022/06/12 06:18:02;;;;;;;2.00;1.90;;;17.60;99.90;;;;;;476293;250;28835;-73
2022/06/12 06:20:04;;;;;;;1.80;1.70;;;17.70;99.90;;;;;;476273;250;29264;-72
2022/06/12 06:22:05;;;;;;;2.10;2.00;;;17.80;99.90;;;;;;476296;250;29302;-72
2022/06/12 06:24:06;;;;;;;2.07;1.97;;;17.90;99.90;;;;;;476304;250;29388;-72
2022/06/12 06:26:07;;;;;;;2.27;2.17;;;17.90;99.90;;;;;;476305;250;28768;-73
2022/06/12 06:28:08;;;;;;;1.97;1.87;;;18.00;99.90;;;;;;476308;249;28849;-72
2022/06/12 06:30:10;;;;;;;2.20;2.10;;;18.00;99.90;;;;;;476306;250;28922;-72
2022/06/12 06:32:11;;;;;;;2.03;1.93;;;18.10;99.90;;;;;;476299;250;28823;-72
2022/06/12 06:34:12;;;;;;;1.77;1.67;;;18.10;99.90;;;;;;476307;250;28883;-72
2022/06/12 06:36:15;;;;;;;2.40;2.20;;;18.20;99.90;;;;;;476307;250;29001;-72
2022/06/12 06:38:15;;;;;;;3.17;1.83;;;18.30;99.90;;;;;;476229;250;28904;-73
2022/06/12 06:40:16;;;;;;;2.70;2.50;;;18.40;99.90;;;;;;476307;250;28871;-73
2022/06/12 06:42:17;;;;;;;2.23;2.13;;;18.40;99.90;;;;;;476303;250;28848;-73
2022/06/12 06:46:38;;;;;;;2.33;2.20;;;18.60;99.90;;;;;;476291;250;28909;-73
2022/06/12 06:48:40;;;;;;;2.37;2.27;;;18.60;99.90;;;;;;476269;250;29323;-73
2022/06/12 06:50:41;;;;;;;2.17;2.07;;;18.70;99.90;;;;;;476302;250;29406;-75
2022/06/12 06:52:42;;;;;;;2.27;2.17;;;18.80;99.90;;;;;;476298;250;29260;-73
2022/06/12 06:54:43;;;;;;;2.40;2.20;;;18.90;99.90;;;;;;476293;250;30205;-73
2022/06/12 06:56:44;;;;;;;2.50;2.30;;;18.90;99.90;;;;;;476286;250;28895;-73
2022/06/12 06:58:46;;;;;;;2.17;2.07;;;19.00;99.90;;;;;;476234;250;28880;-73
2022/06/12 07:00:47;;;;;;;2.00;1.90;;;19.10;99.90;;;;;;476230;250;28799;-73
2022/06/12 07:02:48;;;;;;;2.17;2.07;;;19.20;99.90;;;;;;476266;250;29175;-73
2022/06/12 07:04:49;;;;;;;2.23;2.13;;;19.20;99.90;;;;;;476263;250;28831;-74
2022/06/12 07:06:51;;;;;;;2.40;2.20;;;19.20;99.90;;;;;;476285;250;28772;-73
2022/06/12 07:08:52;;;;;;;2.37;2.17;;;19.30;99.90;;;;;;476285;250;28846;-73
2022/06/12 07:10:54;;;;;;;2.10;2.00;;;19.40;99.90;;;;;;476284;250;28872;-75
2022/06/12 07:12:56;;;;;;;2.77;2.20;;;19.40;99.90;;;;;;476293;249;28785;-74
2022/06/12 07:14:56;;;;;;;2.30;2.20;;;19.50;99.90;;;;;;476274;250;29297;-73
2022/06/12 07:16:57;;;;;;;2.43;2.27;;;19.50;99.90;;;;;;476316;250;29250;-73
2022/06/12 07:18:58;;;;;;;2.23;2.03;;;19.50;99.90;;;;;;476316;250;29330;-73
2022/06/12 07:21:03;;;;;;;2.10;2.00;;;19.40;99.90;;;;;;476299;250;28831;-72
2022/06/12 07:23:03;;;;;;;2.00;1.90;;;19.40;99.90;;;;;;476163;249;28780;-73
2022/06/12 07:25:02;;;;;;;2.77;2.20;;;19.50;99.90;;;;;;476142;250;28936;-74
2022/06/12 07:27:03;;;;;;;2.57;2.37;;;19.60;99.90;;;;;;476318;250;28845;-73
2022/06/12 07:29:04;;;;;;;2.10;2.00;;;19.80;99.90;;;;;;476298;250;28816;-73
2022/06/12 07:31:06;;;;;;;2.33;2.23;;;19.90;99.90;;;;;;476314;250;28894;-73
2022/06/12 07:33:07;;;;;;;2.50;1.90;;;19.80;99.90;;;;;;476295;250;28802;-73
2022/06/12 07:35:08;;;;;;;2.10;2.00;;;19.90;99.90;;;;;;476296;250;28898;-73
2022/06/12 07:37:10;;;;;;;2.10;2.00;;;19.90;99.90;;;;;;476284;250;28816;-72
2022/06/12 07:39:11;;;;;;;2.53;2.20;;;20.00;99.90;;;;;;476287;250;29276;-73
2022/06/12 07:41:12;;;;;;;2.90;2.30;;;20.00;99.90;;;;;;476276;250;30000;-73
2022/06/12 07:43:13;;;;;;;2.60;2.40;;;20.20;99.90;;;;;;476316;250;29319;-73
2022/06/12 07:45:15;;;;;;;2.37;2.27;;;20.40;99.90;;;;;;476291;250;29130;-73
2022/06/12 07:47:16;;;;;;;2.30;2.20;;;20.50;99.90;;;;;;476296;249;28780;-73
2022/06/12 07:49:17;;;;;;;2.40;2.20;;;20.40;99.90;;;;;;476275;250;28814;-73
2022/06/12 07:51:18;;;;;;;2.00;1.80;;;20.50;99.90;;;;;;476300;249;28863;-73
2022/06/12 07:53:20;;;;;;;2.13;1.87;;;20.50;99.90;;;;;;476289;250;28878;-73
2022/06/12 07:55:21;;;;;;;2.30;2.20;;;20.60;99.90;;;;;;476313;250;28817;-73
2022/06/12 07:57:22;;;;;;;2.17;2.07;;;20.70;99.90;;;;;;476296;250;28870;-73
2022/06/12 07:59:23;;;;;;;2.37;2.17;;;20.70;99.90;;;;;;476298;250;29323;-74
2022/06/12 08:01:25;;;;;;;2.63;2.43;;;20.90;99.90;;;;;;476318;250;29997;-73
2022/06/12 08:03:26;;;;;;;2.97;2.60;;;20.90;99.90;;;;;;476255;250;29260;-73
2022/06/12 08:05:27;;;;;;;2.80;2.60;;;20.80;99.90;;;;;;476313;250;29378;-75
2022/06/12 08:07:28;;;;;;;2.90;2.70;;;20.80;99.90;;;;;;476301;250;28809;-72
2022/06/12 08:09:30;;;;;;;2.67;2.47;;;20.90;99.90;;;;;;476286;250;28948;-73
2022/06/12 08:11:31;;;;;;;2.20;2.00;;;20.90;99.90;;;;;;476316;250;28818;-73
2022/06/12 08:13:32;;;;;;;2.40;2.20;;;20.80;99.90;;;;;;476297;250;28885;-73
2022/06/12 08:15:33;;;;;;;2.57;2.37;;;20.90;99.90;;;;;;476315;250;28860;-75
2022/06/12 08:17:35;;;;;;;2.10;2.00;;;20.90;99.90;;;;;;476289;250;28781;-73
2022/06/12 08:21:55;;;;;;;1.63;1.53;;;21.10;99.90;;;;;;476318;250;28852;-73
2022/06/12 08:23:57;;;;;;;2.20;2.10;;;21.20;99.90;;;;;;476289;250;28776;-73
2022/06/12 08:25:58;;;;;;;2.30;2.10;;;21.30;99.90;;;;;;476306;250;28819;-74
2022/06/12 08:28:00;;;;;;;2.00;1.90;;;21.30;99.90;;;;;;476306;250;28769;-72
2022/06/12 08:30:00;;;;;;;1.70;1.60;;;21.30;99.90;;;;;;476286;250;28820;-72
2022/06/12 08:32:02;;;;;;;3.13;2.00;;;21.20;99.90;;;;;;476273;250;30063;-72
2022/06/12 08:34:03;;;;;;;3.43;2.30;;;21.20;99.90;;;;;;476323;250;29302;-73
2022/06/12 08:36:04;;;;;;;3.60;2.20;;;21.30;99.90;;;;;;476323;250;29310;-73
2022/06/12 08:38:05;;;;;;;2.43;2.23;;;21.30;99.90;;;;;;476297;250;28774;-73
2022/06/12 08:40:07;;;;;;;2.40;2.23;;;21.20;99.90;;;;;;476294;250;28815;-72
2022/06/12 08:42:08;;;;;;;2.10;2.00;;;21.20;99.90;;;;;;476306;250;28805;-72
2022/06/12 08:44:09;;;;;;;2.60;2.40;;;21.40;99.90;;;;;;476316;250;28798;-72
2022/06/12 08:46:10;;;;;;;2.80;2.60;;;21.50;99.90;;;;;;476274;250;28892;-73
2022/06/12 08:48:12;;;;;;;4.00;3.07;;;21.60;99.90;;;;;;476269;250;28794;-73
2022/06/12 08:50:13;;;;;;;2.90;2.67;;;21.70;99.90;;;;;;476255;250;28919;-72
2022/06/12 08:52:14;;;;;;;3.10;2.87;;;21.80;99.90;;;;;;476275;250;28804;-74
2022/06/12 08:54:15;;;;;;;3.30;2.70;;;21.70;99.90;;;;;;476269;250;28812;-73
2022/06/12 08:56:17;;;;;;;2.90;2.70;;;21.70;99.90;;;;;;476314;250;29321;-74
2022/06/12 08:58:18;;;;;;;3.53;2.53;;;21.60;99.90;;;;;;476307;250;29330;-72
2022/06/12 09:00:19;;;;;;;4.97;2.60;;;21.60;99.90;;;;;;476310;250;29390;-72
2022/06/12 09:02:21;;;;;;;2.70;2.50;;;21.70;99.90;;;;;;476281;250;28941;-72
2022/06/12 09:04:23;;;;;;;3.97;2.77;;;21.70;99.90;;;;;;476279;250;28865;-73
2022/06/12 09:06:23;;;;;;;2.70;2.50;;;21.70;99.90;;;;;;476198;250;28833;-74
2022/06/12 09:08:24;;;;;;;2.57;2.37;;;21.70;99.90;;;;;;476294;250;28772;-72
2022/06/12 09:10:25;;;;;;;3.13;2.50;;;21.70;99.90;;;;;;476274;250;28820;-73
2022/06/12 09:12:27;;;;;;;2.73;2.40;;;21.70;99.90;;;;;;476277;246;28804;-72
2022/06/12 09:14:28;;;;;;;2.17;1.97;;;21.80;99.90;;;;;;476303;250;28853;-73
2022/06/12 09:16:29;;;;;;;2.87;2.10;;;21.90;99.90;;;;;;476266;250;28887;-73
2022/06/12 09:18:30;;;;;;;4.83;2.27;;;21.80;99.90;;;;;;476310;250;28825;-73
2022/06/12 09:20:32;;;;;;;2.13;2.03;;;21.90;99.90;;;;;;476298;250;29304;-73
2022/06/12 09:22:33;;;;;;;2.57;2.30;;;21.80;99.90;;;;;;476297;250;30146;-72
2022/06/12 09:24:34;;;;;;;2.30;2.10;;;21.80;99.90;;;;;;476283;250;29273;-72
2022/06/12 09:26:35;;;;;;;2.30;1.70;;;21.80;99.90;;;;;;476299;250;29376;-73
2022/06/12 09:28:37;;;;;;;2.30;2.10;;;21.80;99.90;;;;;;474186;250;36427;-73
2022/06/12 09:30:38;;;;;;;2.23;2.00;;;21.90;99.90;;;;;;476292;250;27546;-74
2022/06/12 09:32:39;;;;;;;2.30;2.03;;;22.10;99.90;;;;;;476281;250;28780;-73
2022/06/12 09:34:40;;;;;;;2.43;2.30;;;22.10;99.90;;;;;;476287;250;28827;-72
2022/06/12 09:36:42;;;;;;;2.67;2.40;;;22.00;99.90;;;;;;476286;249;28836;-74
2022/06/12 09:38:43;;;;;;;2.30;2.20;;;22.00;99.90;;;;;;476296;249;28820;-73
2022/06/12 09:40:44;;;;;;;2.60;2.30;;;22.20;99.90;;;;;;476264;250;28926;-73
2022/06/12 09:42:45;;;;;;;4.83;2.40;;;22.20;99.90;;;;;;476297;250;28780;-73
2022/06/12 09:44:47;;;;;;;2.13;1.93;;;22.20;99.90;;;;;;476315;250;29346;-73
2022/06/12 09:46:48;;;;;;;2.33;2.10;;;22.10;99.90;;;;;;476301;250;29295;-73
2022/06/12 09:48:49;;;;;;;3.87;2.07;;;22.10;99.90;;;;;;476319;250;29304;-72
2022/06/12 09:50:51;;;;;;;2.10;2.00;;;22.20;99.90;;;;;;476302;250;28916;-72
2022/06/12 09:52:52;;;;;;;2.17;2.00;;;22.10;99.90;;;;;;476302;250;28804;-72
2022/06/12 09:54:53;;;;;;;1.77;1.67;;;22.30;99.90;;;;;;476317;250;28780;-73
2022/06/12 09:56:54;;;;;;;2.30;2.10;;;22.30;99.90;;;;;;476308;250;28819;-73
2022/06/12 09:58:55;;;;;;;1.93;1.80;;;22.40;99.90;;;;;;476313;249;28859;-72
2022/06/12 10:00:57;;;;;;;2.03;1.93;;;22.50;99.90;;;;;;476276;250;28899;-73
2022/06/12 10:02:58;;;;;;;1.83;1.73;;;22.50;99.90;;;;;;476275;250;28895;-73
2022/06/12 10:04:59;;;;;;;2.23;2.10;;;22.40;99.90;;;;;;476278;250;28779;-73
2022/06/12 10:07:00;;;;;;;2.10;2.00;;;22.60;99.90;;;;;;476307;250;28927;-73
2022/06/12 10:09:02;;;;;;;2.37;2.17;;;23.00;99.90;;;;;;476283;250;29285;-73
2022/06/12 10:11:03;;;;;;;2.60;2.07;;;23.20;99.90;;;;;;476290;250;29372;-73
2022/06/12 10:13:04;;;;;;;2.10;2.00;;;23.20;99.90;;;;;;476285;250;30026;-72
2022/06/12 10:15:05;;;;;;;3.53;1.90;;;23.10;99.90;;;;;;476302;249;29274;-73
2022/06/12 10:17:07;;;;;;;2.20;2.10;;;23.00;99.90;;;;;;476268;250;28845;-73
2022/06/12 10:19:08;;;;;;;2.27;2.07;;;23.00;99.90;;;;;;476297;250;28812;-73
2022/06/12 10:21:09;;;;;;;2.47;2.27;;;23.00;99.90;;;;;;476280;250;28824;-73
2022/06/12 10:23:10;;;;;;;2.70;2.10;;;23.10;99.90;;;;;;476271;250;28819;-72
2022/06/12 10:25:12;;;;;;;2.33;2.10;;;23.20;99.90;;;;;;476278;250;28880;-72
2022/06/12 10:27:13;;;;;;;2.07;1.90;;;23.50;99.90;;;;;;476294;250;28953;-74
2022/06/12 10:29:14;;;;;;;2.10;2.00;;;23.50;99.90;;;;;;476283;250;28871;-72
2022/06/12 10:31:15;;;;;;;1.87;1.77;;;23.60;99.90;;;;;;476305;250;28807;-73
2022/06/12 10:33:17;;;;;;;2.17;1.90;;;23.70;99.90;;;;;;476287;250;29236;-72
2022/06/12 10:35:18;;;;;;;4.27;1.80;;;24.00;99.90;;;;;;476272;250;29311;-72
2022/06/12 10:37:19;;;;;;;2.00;1.90;;;24.00;99.90;;;;;;476303;250;29438;-74
2022/06/12 10:39:20;;;;;;;2.00;1.90;;;24.10;99.90;;;;;;476305;250;29406;-73
2022/06/12 10:41:22;;;;;;;2.30;1.90;;;24.10;99.90;;;;;;476288;249;28837;-73
2022/06/12 10:43:23;;;;;;;2.03;1.90;;;24.40;99.90;;;;;;476290;249;28792;-72